Time;durP1;ratioP1;P1;durP2;ratioP2;P2;SDS_P1;SDS_P2;PMS_P1;PMS_P2;Temp;Humidity;BMP_temperature;BMP_pressure;BME280_temperature;BME280_humidity;BME280_pressure;Samples;Min_cycle;Max_cycle;Signal;HPM_P1;HPM_P2
2023/07/12 00:03:02;;;;;;;2.80;2.60;;;19.60;99.90;;;;;;4766717;30;20078;-92
2023/07/12 00:05:31;;;;;;;2.83;2.63;;;19.70;99.90;;;;;;4761860;29;20542;-94
2023/07/12 00:08:43;;;;;;;2.45;2.35;;;19.60;99.90;;;;;;4822141;29;20045;-94
2023/07/12 00:12:11;;;;;;;2.50;2.40;;;19.70;99.90;;;;;;4812856;29;20054;-93
2023/07/12 00:18:32;;;;;;;2.40;2.30;;;19.70;99.90;;;;;;4763143;30;20046;-93
2023/07/12 00:21:49;;;;;;;;;;;;;;;;;;;;;
2023/07/12 00:24:45;;;;;;;2.47;2.38;;;19.60;99.90;;;;;;4791951;29;20050;-95
2023/07/12 00:27:19;;;;;;;2.20;2.10;;;19.50;99.90;;;;;;4818087;29;20065;-93
2023/07/12 00:29:45;;;;;;;2.00;1.90;;;19.50;99.90;;;;;;4801170;29;20186;-91
2023/07/12 00:32:10;;;;;;;2.08;1.98;;;19.30;99.90;;;;;;4800172;29;20128;-91
2023/07/12 00:34:43;;;;;;;2.00;1.90;;;19.40;99.90;;;;;;4814361;29;20242;-91
2023/07/12 00:37:14;;;;;;;1.93;1.83;;;19.40;99.90;;;;;;4800723;29;20077;-89
2023/07/12 00:39:40;;;;;;;2.17;2.08;;;19.40;99.90;;;;;;4815294;29;20319;-89
2023/07/12 00:42:28;;;;;;;2.05;1.95;;;19.30;99.90;;;;;;4798361;29;20390;-91
2023/07/12 00:44:58;;;;;;;1.80;1.70;;;19.20;99.90;;;;;;4813851;29;20058;-90
2023/07/12 00:47:37;;;;;;;1.73;1.63;;;19.30;99.90;;;;;;4810797;29;20544;-92
2023/07/12 00:50:18;;;;;;;1.63;1.52;;;19.20;99.90;;;;;;4813377;29;20092;-91
2023/07/12 00:52:45;;;;;;;1.50;1.40;;;19.20;99.90;;;;;;4803258;29;20046;-87
2023/07/12 00:55:50;;;;;;;1.45;1.38;;;19.30;99.90;;;;;;4814517;29;20050;-87
2023/07/12 00:58:18;;;;;;;1.42;1.40;;;19.20;99.90;;;;;;4810030;29;20091;-90
2023/07/12 01:00:43;;;;;;;1.27;1.27;;;19.20;99.90;;;;;;4808802;29;20544;-90
2023/07/12 01:03:14;;;;;;;1.30;1.30;;;19.10;99.90;;;;;;4816718;29;20050;-93
2023/07/12 01:05:45;;;;;;;1.20;1.20;;;19.20;99.90;;;;;;4817695;29;20073;-93
2023/07/12 01:08:14;;;;;;;1.30;1.27;;;19.00;99.90;;;;;;4828689;29;20622;-92
2023/07/12 01:10:41;;;;;;;2.15;2.05;;;19.20;99.90;;;;;;4811932;29;20049;-89
2023/07/12 01:13:09;;;;;;;1.00;1.00;;;19.00;99.90;;;;;;4816700;29;20053;-89
2023/07/12 01:18:42;;;;;;;0.90;0.90;;;19.20;99.90;;;;;;4838483;29;20085;-93
2023/07/12 01:21:14;;;;;;;0.85;0.85;;;19.10;99.90;;;;;;4816151;29;20052;-88
2023/07/12 01:24:04;;;;;;;0.80;0.80;;;19.00;99.90;;;;;;4816338;29;20058;-92
2023/07/12 01:26:37;;;;;;;0.80;0.80;;;19.10;99.90;;;;;;4805385;29;20050;-92
2023/07/12 01:29:05;;;;;;;0.77;0.77;;;19.00;99.90;;;;;;4803682;29;20150;-88
2023/07/12 01:31:32;;;;;;;0.70;0.70;;;19.10;99.90;;;;;;4798880;29;20050;-88
2023/07/12 01:33:59;;;;;;;0.70;0.70;;;19.10;99.90;;;;;;4812021;29;20045;-88
2023/07/12 01:36:27;;;;;;;0.70;0.70;;;18.90;99.90;;;;;;4800877;29;20058;-89
2023/07/12 01:38:56;;;;;;;0.65;0.65;;;18.90;99.90;;;;;;4803326;29;20079;-87
2023/07/12 01:41:22;;;;;;;0.60;0.60;;;18.90;99.90;;;;;;4832297;29;20066;-87
2023/07/12 01:43:48;;;;;;;0.63;0.63;;;19.00;99.90;;;;;;4818028;29;20056;-86
2023/07/12 01:46:15;;;;;;;0.63;0.63;;;18.90;99.90;;;;;;4814625;29;20050;-86
2023/07/12 01:48:41;;;;;;;0.60;0.60;;;18.80;99.90;;;;;;4802074;29;20061;-87
2023/07/12 01:51:07;;;;;;;0.60;0.60;;;19.00;99.90;;;;;;4802820;29;20520;-85
2023/07/12 01:53:35;;;;;;;0.70;0.70;;;19.00;99.90;;;;;;4801641;29;20049;-87
2023/07/12 01:56:02;;;;;;;0.60;0.60;;;19.00;99.90;;;;;;4815054;29;20052;-86
2023/07/12 01:58:29;;;;;;;0.63;0.63;;;18.90;99.90;;;;;;4808903;29;20061;-86
2023/07/12 02:01:25;;;;;;;0.63;0.63;;;19.00;99.90;;;;;;4812723;29;20139;-96
2023/07/12 02:03:51;;;;;;;0.70;0.70;;;18.90;99.90;;;;;;4818242;29;20061;-84
2023/07/12 02:06:17;;;;;;;0.70;0.70;;;18.90;99.90;;;;;;4812510;29;20658;-86
2023/07/12 02:08:42;;;;;;;0.70;0.70;;;18.80;99.90;;;;;;4826790;29;20057;-86
2023/07/12 02:11:08;;;;;;;0.70;0.70;;;18.80;99.90;;;;;;4812279;29;20061;-82
2023/07/12 02:13:35;;;;;;;0.80;0.80;;;18.80;99.90;;;;;;4811724;29;20066;-86
2023/07/12 02:16:01;;;;;;;0.70;0.70;;;18.80;99.90;;;;;;4811571;29;20057;-83
2023/07/12 02:18:27;;;;;;;0.80;0.80;;;18.80;99.90;;;;;;4812219;29;20421;-84
2023/07/12 02:20:52;;;;;;;0.80;0.80;;;18.80;99.90;;;;;;4809905;29;20063;-86
2023/07/12 02:23:18;;;;;;;0.80;0.80;;;18.60;99.90;;;;;;4800720;29;20061;-90
2023/07/12 02:25:44;;;;;;;0.80;0.80;;;18.70;99.90;;;;;;4812262;29;20138;-86
2023/07/12 02:28:18;;;;;;;0.85;0.85;;;18.80;99.90;;;;;;4831916;29;20054;-94
2023/07/12 02:30:47;;;;;;;;;;;18.70;99.90;;;;;;4813249;29;20046;-92
2023/07/12 02:33:13;;;;;;;0.90;0.90;;;18.60;99.90;;;;;;4799455;29;19932;-89
2023/07/12 02:35:40;;;;;;;0.90;0.90;;;18.70;99.90;;;;;;4810156;29;20057;-89
2023/07/12 02:38:06;;;;;;;1.00;1.00;;;18.50;99.90;;;;;;4809751;29;20049;-84
2023/07/12 02:40:38;;;;;;;1.00;1.00;;;18.50;99.90;;;;;;4810453;29;20051;-92
2023/07/12 02:43:03;;;;;;;1.10;1.10;;;18.40;99.90;;;;;;4807844;29;20046;-85
2023/07/12 02:45:29;;;;;;;0.95;0.95;;;18.50;99.90;;;;;;4814633;29;20470;-88
2023/07/12 02:47:57;;;;;;;1.00;1.00;;;18.40;99.90;;;;;;4814852;29;20038;-93
2023/07/12 02:50:23;;;;;;;1.00;1.00;;;18.40;99.90;;;;;;4805601;29;20057;-90
2023/07/12 02:52:49;;;;;;;1.05;1.05;;;18.50;99.90;;;;;;4819350;29;20509;-86
2023/07/12 02:55:15;;;;;;;1.00;1.00;;;18.30;99.90;;;;;;4826231;29;20060;-87
2023/07/12 02:57:41;;;;;;;1.00;1.00;;;18.40;99.90;;;;;;4812548;29;20068;-88
2023/07/12 03:00:07;;;;;;;1.00;1.00;;;18.40;99.90;;;;;;4809879;29;20054;-87
2023/07/12 03:02:33;;;;;;;0.95;0.95;;;18.30;99.90;;;;;;4821290;29;20054;-86
2023/07/12 03:04:58;;;;;;;1.00;1.00;;;18.40;99.90;;;;;;4816990;29;20612;-87
2023/07/12 03:07:24;;;;;;;1.00;1.00;;;18.30;99.90;;;;;;4808698;29;20129;-85
2023/07/12 03:09:55;;;;;;;0.90;0.90;;;18.30;99.90;;;;;;4816659;29;20046;-93
2023/07/12 03:12:21;;;;;;;1.00;1.00;;;18.20;99.90;;;;;;4802298;29;20058;-90
2023/07/12 03:14:47;;;;;;;0.98;0.98;;;18.20;99.90;;;;;;4811558;29;20061;-86
2023/07/12 03:17:12;;;;;;;1.00;1.00;;;18.30;99.90;;;;;;4801081;29;20555;-90
2023/07/12 03:20:04;;;;;;;1.00;1.00;;;18.40;99.90;;;;;;4810315;29;20507;-92
2023/07/12 03:26:35;;;;;;;1.10;1.10;;;18.20;99.90;;;;;;4758375;30;20159;-92
2023/07/12 03:32:28;;;;;;;1.40;1.35;;;18.20;99.90;;;;;;4755484;30;20051;-86
2023/07/12 03:34:54;;;;;;;1.58;1.48;;;18.20;99.90;;;;;;4802678;29;20062;-87
2023/07/12 03:37:19;;;;;;;1.50;1.40;;;18.10;99.90;;;;;;4796420;29;20046;-86
2023/07/12 03:39:45;;;;;;;1.50;1.40;;;18.20;99.90;;;;;;4823341;29;20070;-86
2023/07/12 03:42:11;;;;;;;1.73;1.63;;;18.10;99.90;;;;;;4812998;29;20050;-84
2023/07/12 03:44:37;;;;;;;1.75;1.65;;;18.20;99.90;;;;;;4811277;29;20797;-86
2023/07/12 03:47:03;;;;;;;1.83;1.73;;;18.00;99.90;;;;;;4822404;29;20055;-89
2023/07/12 03:49:29;;;;;;;1.90;1.80;;;18.00;99.90;;;;;;4813725;29;20057;-86
2023/07/12 03:51:54;;;;;;;1.92;1.83;;;18.00;99.90;;;;;;4809671;29;20145;-86
2023/07/12 03:54:21;;;;;;;2.15;2.05;;;18.10;99.90;;;;;;4799482;29;20189;-84
2023/07/12 03:56:47;;;;;;;2.33;2.22;;;17.90;99.90;;;;;;4815671;29;20046;-88
2023/07/12 03:59:13;;;;;;;2.58;2.47;;;17.90;99.90;;;;;;4795453;29;20433;-87
2023/07/12 04:01:39;;;;;;;2.83;2.63;;;17.90;99.90;;;;;;4795796;29;20110;-87
2023/07/12 04:04:05;;;;;;;2.35;2.25;;;17.90;99.90;;;;;;4800320;29;20519;-87
2023/07/12 04:06:32;;;;;;;2.45;2.35;;;17.90;99.90;;;;;;4809931;29;20382;-87
2023/07/12 04:08:58;;;;;;;2.42;2.33;;;18.00;99.90;;;;;;4809106;29;20091;-85
2023/07/12 04:11:31;;;;;;;2.47;2.38;;;17.80;99.90;;;;;;4813720;29;20053;-85
2023/07/12 04:13:59;;;;;;;2.55;2.45;;;17.90;99.90;;;;;;4813998;29;20054;-87
2023/07/12 04:16:25;;;;;;;2.75;2.60;;;17.90;99.90;;;;;;4813669;29;20060;-85
2023/07/12 04:18:54;;;;;;;2.70;2.55;;;17.80;99.90;;;;;;4816472;29;20061;-86
2023/07/12 04:21:20;;;;;;;2.47;2.38;;;18.10;99.90;;;;;;4802818;29;20128;-86
2023/07/12 04:23:47;;;;;;;3.05;2.85;;;18.00;99.90;;;;;;4810455;29;20405;-84
2023/07/12 04:26:14;;;;;;;3.28;3.08;;;17.90;99.90;;;;;;4829952;29;20058;-86
2023/07/12 04:28:43;;;;;;;3.20;3.00;;;17.80;99.90;;;;;;4809555;29;20503;-86
2023/07/12 04:31:12;;;;;;;4.30;4.00;;;18.00;99.90;;;;;;4812012;29;20080;-84
2023/07/12 04:33:38;;;;;;;4.47;4.18;;;18.00;99.90;;;;;;4828996;29;20049;-85
2023/07/12 04:36:09;;;;;;;4.38;4.07;;;18.10;99.90;;;;;;4807034;29;20095;-83
2023/07/12 04:38:35;;;;;;;3.90;3.70;;;17.90;99.90;;;;;;4827506;29;20110;-85
2023/07/12 04:41:02;;;;;;;3.72;3.53;;;17.90;99.90;;;;;;4811750;29;20606;-84
2023/07/12 04:43:29;;;;;;;3.90;3.70;;;17.90;99.90;;;;;;4807880;29;20089;-86
2023/07/12 04:45:56;;;;;;;3.70;3.50;;;17.90;99.90;;;;;;4825988;29;20050;-88
2023/07/12 04:48:21;;;;;;;3.72;3.53;;;17.80;99.90;;;;;;4816725;29;20117;-83
2023/07/12 04:50:52;;;;;;;3.40;3.20;;;18.00;99.90;;;;;;4809970;29;20052;-84
2023/07/12 04:53:19;;;;;;;3.75;3.55;;;17.90;99.90;;;;;;4813737;29;20054;-87
2023/07/12 04:55:45;;;;;;;3.58;3.38;;;17.80;99.90;;;;;;4809752;29;20137;-85
2023/07/12 04:58:11;;;;;;;3.35;3.15;;;18.00;99.90;;;;;;4812271;29;20513;-83
2023/07/12 05:00:37;;;;;;;3.53;3.33;;;17.80;99.90;;;;;;4832667;29;20555;-85
2023/07/12 05:03:03;;;;;;;3.55;3.35;;;17.80;99.90;;;;;;4807261;29;20054;-84
2023/07/12 05:05:29;;;;;;;3.47;3.28;;;17.80;99.90;;;;;;4812306;29;20049;-86
2023/07/12 05:07:55;;;;;;;2.88;2.67;;;17.90;99.90;;;;;;4803722;29;20404;-85
2023/07/12 05:10:20;;;;;;;3.30;3.10;;;17.90;99.90;;;;;;4816377;29;20043;-83
2023/07/12 05:12:46;;;;;;;2.58;2.47;;;17.90;99.90;;;;;;4834675;29;20054;-82
2023/07/12 05:15:12;;;;;;;2.80;2.60;;;17.90;99.90;;;;;;4818360;29;20045;-83
2023/07/12 05:17:39;;;;;;;3.08;2.88;;;18.00;99.90;;;;;;4811358;29;20057;-88
2023/07/12 05:20:07;;;;;;;2.40;2.30;;;18.00;99.90;;;;;;4818761;29;20060;-86
2023/07/12 05:22:33;;;;;;;2.50;2.40;;;18.10;99.90;;;;;;4800406;29;20065;-84
2023/07/12 05:25:02;;;;;;;2.40;2.30;;;18.10;99.90;;;;;;4812165;29;20682;-83
2023/07/12 05:27:28;;;;;;;2.20;2.10;;;18.10;99.90;;;;;;4811055;29;20089;-85
2023/07/12 05:29:54;;;;;;;1.95;1.85;;;18.10;99.90;;;;;;4812383;29;20114;-84
2023/07/12 05:32:20;;;;;;;1.60;1.50;;;19.50;99.90;;;;;;4820024;29;20057;-81
2023/07/12 05:34:45;;;;;;;1.50;1.40;;;20.10;99.90;;;;;;4813671;29;20197;-90
2023/07/12 05:37:12;;;;;;;1.30;1.30;;;20.00;99.90;;;;;;4812469;29;20127;-91
2023/07/12 05:39:38;;;;;;;1.30;1.30;;;19.30;99.90;;;;;;4812109;29;20053;-86
2023/07/12 05:42:04;;;;;;;1.35;1.35;;;19.10;99.90;;;;;;4813649;29;20054;-83
2023/07/12 05:44:32;;;;;;;1.30;1.30;;;18.80;99.90;;;;;;4820892;29;20054;-92
2023/07/12 05:47:02;;;;;;;1.30;1.30;;;18.60;99.90;;;;;;4814603;29;20050;-92
2023/07/12 05:49:27;;;;;;;1.50;1.40;;;18.60;99.90;;;;;;4799479;29;20050;-84
2023/07/12 05:51:53;;;;;;;1.50;1.40;;;18.40;99.90;;;;;;4807594;29;20106;-89
2023/07/12 05:54:19;;;;;;;1.52;1.42;;;18.40;99.90;;;;;;4807958;29;20057;-83
2023/07/12 05:56:45;;;;;;;1.50;1.40;;;18.40;99.90;;;;;;4804074;29;20050;-82
2023/07/12 05:59:16;;;;;;;1.60;1.50;;;18.40;99.90;;;;;;4824442;29;20698;-90
2023/07/12 06:01:42;;;;;;;1.50;1.40;;;18.30;99.90;;;;;;4819400;29;20057;-88
2023/07/12 06:04:11;;;;;;;1.60;1.50;;;18.30;99.90;;;;;;4803438;29;20876;-91
2023/07/12 06:06:37;;;;;;;1.55;1.45;;;18.30;99.90;;;;;;4828501;29;20133;-93
2023/07/12 06:09:12;;;;;;;1.48;1.40;;;18.20;99.90;;;;;;4814155;29;20058;-90
2023/07/12 06:11:41;;;;;;;1.50;1.40;;;18.20;99.90;;;;;;4830060;29;20046;-90
2023/07/12 06:14:06;;;;;;;1.33;1.33;;;18.20;99.90;;;;;;4824927;29;20048;-90
2023/07/12 06:16:44;;;;;;;1.20;1.20;;;18.20;99.90;;;;;;4829268;29;20309;-91
2023/07/12 06:19:10;;;;;;;1.48;1.40;;;18.30;99.90;;;;;;4809775;29;20043;-90
2023/07/12 06:21:35;;;;;;;1.10;1.10;;;18.40;99.90;;;;;;4815978;29;20653;-83
2023/07/12 06:24:02;;;;;;;1.10;1.10;;;18.40;99.90;;;;;;4807639;29;20132;-83
2023/07/12 06:26:28;;;;;;;1.20;1.20;;;18.60;99.90;;;;;;4811478;29;20565;-91
2023/07/12 06:28:54;;;;;;;1.20;1.20;;;18.50;99.90;;;;;;4795262;29;20054;-90
2023/07/12 06:31:19;;;;;;;1.30;1.30;;;18.60;99.90;;;;;;4830739;29;20081;-88
2023/07/12 06:33:45;;;;;;;1.50;1.40;;;18.60;99.90;;;;;;4811079;29;20057;-83
2023/07/12 06:36:11;;;;;;;1.65;1.55;;;18.50;99.90;;;;;;4822324;29;20161;-88
2023/07/12 06:38:39;;;;;;;1.75;1.65;;;18.50;99.90;;;;;;4810531;29;20129;-87
2023/07/12 06:41:05;;;;;;;1.70;1.60;;;18.40;99.90;;;;;;4835219;29;20102;-88
2023/07/12 06:43:30;;;;;;;1.80;1.70;;;18.40;99.90;;;;;;4806072;29;20050;-82
2023/07/12 06:45:56;;;;;;;1.80;1.70;;;18.30;99.90;;;;;;4828345;29;20085;-81
2023/07/12 06:48:23;;;;;;;1.80;1.70;;;18.30;99.90;;;;;;4831585;29;20129;-85
2023/07/12 06:50:49;;;;;;;1.70;1.60;;;18.70;99.90;;;;;;4809296;29;20048;-81
2023/07/12 06:53:14;;;;;;;1.75;1.65;;;19.40;99.90;;;;;;4829823;29;20049;-88
2023/07/12 06:55:44;;;;;;;1.80;1.70;;;19.50;99.90;;;;;;4825879;29;20070;-85
2023/07/12 06:58:11;;;;;;;1.90;1.80;;;19.40;99.90;;;;;;4825418;29;20065;-83
2023/07/12 07:00:39;;;;;;;1.90;1.80;;;19.40;99.90;;;;;;4809363;29;20058;-83
2023/07/12 07:03:08;;;;;;;1.90;1.80;;;19.60;99.90;;;;;;4813264;29;20149;-85
2023/07/12 07:05:40;;;;;;;1.90;1.80;;;19.90;99.90;;;;;;4797927;29;20053;-83
2023/07/12 07:08:06;;;;;;;1.80;1.70;;;19.90;99.90;;;;;;4816498;29;20050;-81
2023/07/12 07:10:32;;;;;;;1.80;1.70;;;20.20;99.90;;;;;;4833302;29;20424;-86
2023/07/12 07:12:58;;;;;;;1.70;1.60;;;20.20;99.90;;;;;;4785353;29;20054;-86
2023/07/12 07:15:24;;;;;;;1.60;1.50;;;20.40;99.90;;;;;;4826865;29;20054;-86
2023/07/12 07:17:49;;;;;;;1.52;1.42;;;20.30;99.90;;;;;;4791735;29;20046;-86
2023/07/12 07:20:15;;;;;;;1.50;1.40;;;19.80;99.90;;;;;;4807275;29;20110;-81
2023/07/12 07:22:41;;;;;;;1.58;1.48;;;19.60;99.90;;;;;;4809210;29;20046;-83
2023/07/12 07:25:07;;;;;;;1.50;1.40;;;19.40;99.90;;;;;;4811694;29;20082;-86
2023/07/12 07:27:33;;;;;;;1.45;1.40;;;19.40;99.90;;;;;;4818455;29;20077;-91
2023/07/12 07:29:59;;;;;;;1.30;1.30;;;19.40;99.90;;;;;;4818431;29;20598;-86
2023/07/12 07:32:27;;;;;;;1.30;1.30;;;19.30;99.90;;;;;;4807452;29;20190;-88
2023/07/12 07:34:53;;;;;;;1.20;1.20;;;19.40;99.90;;;;;;4809892;29;20050;-81
2023/07/12 07:37:18;;;;;;;1.20;1.20;;;19.70;99.90;;;;;;4831407;29;20151;-84
2023/07/12 07:39:44;;;;;;;1.20;1.20;;;20.00;99.90;;;;;;4831057;29;20049;-85
2023/07/12 07:42:10;;;;;;;1.10;1.10;;;20.30;99.90;;;;;;4816987;29;20057;-88
2023/07/12 07:44:35;;;;;;;1.10;1.10;;;20.80;99.90;;;;;;4828917;29;20058;-86
2023/07/12 07:47:01;;;;;;;1.20;1.20;;;20.80;99.90;;;;;;4808739;29;20050;-85
2023/07/12 07:49:27;;;;;;;1.20;1.20;;;20.50;99.90;;;;;;4825951;29;20053;-89
2023/07/12 07:51:54;;;;;;;1.10;1.10;;;20.50;99.90;;;;;;4811195;29;20053;-83
2023/07/12 07:54:19;;;;;;;1.10;1.10;;;20.80;99.90;;;;;;4808876;29;20050;-89
2023/07/12 07:56:45;;;;;;;1.00;1.00;;;21.20;99.90;;;;;;4808679;29;20599;-89
2023/07/12 07:59:12;;;;;;;1.10;1.10;;;21.40;99.90;;;;;;4812510;29;20046;-86
2023/07/12 08:01:38;;;;;;;1.20;1.20;;;21.70;99.90;;;;;;4807922;29;20145;-82
2023/07/12 08:04:04;;;;;;;1.10;1.10;;;21.10;99.90;;;;;;4826554;29;20125;-86
2023/07/12 08:06:33;;;;;;;1.20;1.20;;;21.30;99.90;;;;;;4809827;29;20054;-91
2023/07/12 08:08:59;;;;;;;1.20;1.20;;;21.90;99.90;;;;;;4811893;29;20065;-85
2023/07/12 08:11:27;;;;;;;1.20;1.20;;;21.90;99.90;;;;;;4811892;29;20636;-92
2023/07/12 08:13:53;;;;;;;1.10;1.10;;;22.10;99.90;;;;;;4814605;29;20062;-90
2023/07/12 08:16:25;;;;;;;1.20;1.20;;;22.20;99.90;;;;;;4810225;29;20053;-85
2023/07/12 08:18:51;;;;;;;1.00;1.00;;;22.40;99.90;;;;;;4800296;29;20239;-87
2023/07/12 08:21:16;;;;;;;1.00;1.00;;;22.40;99.90;;;;;;4808970;29;20501;-85
2023/07/12 08:23:42;;;;;;;1.02;1.02;;;22.10;99.90;;;;;;4835000;29;20042;-81
2023/07/12 08:26:08;;;;;;;1.00;1.00;;;22.00;99.90;;;;;;4831099;29;20057;-86
2023/07/12 08:28:33;;;;;;;0.90;0.90;;;22.60;99.90;;;;;;4828829;29;20057;-87
2023/07/12 08:30:59;;;;;;;0.90;0.90;;;22.60;99.90;;;;;;4821080;29;20130;-92
2023/07/12 08:33:25;;;;;;;0.80;0.80;;;22.90;99.90;;;;;;4819367;29;20046;-88
2023/07/12 08:35:50;;;;;;;0.80;0.80;;;22.50;99.90;;;;;;4834620;29;20513;-85
2023/07/12 08:38:18;;;;;;;0.73;0.73;;;21.90;99.90;;;;;;4812523;29;20494;-87
2023/07/12 08:40:48;;;;;;;0.80;0.80;;;21.70;99.90;;;;;;4817864;29;20066;-82
2023/07/12 08:43:23;;;;;;;1.00;1.00;;;22.10;99.90;;;;;;4811226;29;20053;-84
2023/07/12 08:45:56;;;;;;;0.90;0.90;;;21.80;99.90;;;;;;4831486;29;20057;-85
2023/07/12 08:48:26;;;;;;;1.00;1.00;;;21.40;99.90;;;;;;4816915;29;20133;-84
2023/07/12 08:50:55;;;;;;;1.02;1.02;;;21.00;99.90;;;;;;4802414;29;20046;-85
2023/07/12 08:53:24;;;;;;;1.10;1.10;;;20.70;99.90;;;;;;4815039;29;20563;-89
2023/07/12 08:55:51;;;;;;;1.10;1.10;;;20.80;99.90;;;;;;4798452;29;20057;-88
2023/07/12 08:58:27;;;;;;;1.15;1.15;;;20.90;99.90;;;;;;4825990;29;20057;-84
2023/07/12 09:01:02;;;;;;;1.20;1.20;;;20.70;99.90;;;;;;4797896;29;20042;-80
2023/07/12 09:03:27;;;;;;;1.17;1.17;;;20.60;99.90;;;;;;4816036;29;20061;-86
2023/07/12 09:05:57;;;;;;;1.20;1.20;;;21.70;99.90;;;;;;4838482;29;20066;-91
2023/07/12 09:08:36;;;;;;;1.10;1.10;;;22.20;99.90;;;;;;4816468;29;20058;-82
2023/07/12 09:11:02;;;;;;;1.00;1.00;;;22.30;99.90;;;;;;4830940;29;20060;-86
2023/07/12 09:13:38;;;;;;;1.00;1.00;;;21.90;99.90;;;;;;4818634;29;20061;-84
2023/07/12 09:16:29;;;;;;;0.90;0.90;;;21.90;99.90;;;;;;4829983;29;20060;-86
2023/07/12 09:18:58;;;;;;;0.90;0.90;;;22.60;99.90;;;;;;4792346;29;20058;-89
2023/07/12 09:21:31;;;;;;;0.80;0.80;;;22.80;99.90;;;;;;4811873;29;20588;-86
2023/07/12 09:24:05;;;;;;;0.90;0.90;;;23.10;99.90;;;;;;4829441;29;20046;-90
2023/07/12 09:26:32;;;;;;;0.80;0.80;;;23.40;99.90;;;;;;4815947;29;20091;-84
2023/07/12 09:29:12;;;;;;;0.70;0.70;;;22.70;99.90;;;;;;4814826;29;20065;-85
2023/07/12 09:31:40;;;;;;;0.70;0.70;;;22.20;99.90;;;;;;4818334;29;20097;-87
2023/07/12 09:34:33;;;;;;;0.77;0.77;;;21.90;99.90;;;;;;4811306;29;20093;-81
2023/07/12 09:36:59;;;;;;;0.85;0.85;;;21.70;99.90;;;;;;4827730;29;20136;-88
2023/07/12 09:39:26;;;;;;;0.90;0.90;;;21.30;99.90;;;;;;4815601;29;20519;-82
2023/07/12 09:41:56;;;;;;;0.90;0.90;;;21.40;99.90;;;;;;4812897;29;20062;-87
2023/07/12 09:44:22;;;;;;;0.93;0.93;;;21.80;99.90;;;;;;4818947;29;20057;-88
2023/07/12 09:47:00;;;;;;;0.90;0.90;;;21.80;99.90;;;;;;4814183;29;20053;-88
2023/07/12 09:49:53;;;;;;;1.00;1.00;;;21.80;99.90;;;;;;4819245;29;20054;-85
2023/07/12 09:52:26;;;;;;;1.00;1.00;;;21.50;99.90;;;;;;4808704;29;20449;-90
2023/07/12 09:55:09;;;;;;;1.00;1.00;;;22.00;99.90;;;;;;4810884;29;20046;-81
2023/07/12 09:58:05;;;;;;;0.98;0.98;;;22.50;99.90;;;;;;4802836;29;20058;-86
2023/07/12 10:00:43;;;;;;;0.93;0.93;;;22.30;99.90;;;;;;4814157;29;20054;-84
2023/07/12 10:03:10;;;;;;;0.85;0.85;;;21.90;99.90;;;;;;4811585;29;20093;-83
2023/07/12 10:05:37;;;;;;;0.82;0.82;;;22.00;99.90;;;;;;4808769;29;20054;-89
2023/07/12 10:08:16;;;;;;;0.85;0.85;;;22.10;99.90;;;;;;4818371;29;20099;-88
2023/07/12 10:11:17;;;;;;;0.90;0.90;;;21.80;99.90;;;;;;4830609;29;20042;-94
2023/07/12 10:13:59;;;;;;;0.90;0.90;;;21.70;99.90;;;;;;4802865;29;20069;-89
2023/07/12 10:16:44;;;;;;;1.00;1.00;;;21.50;99.90;;;;;;4813080;29;20057;-93
2023/07/12 10:19:22;;;;;;;0.95;0.95;;;21.60;99.90;;;;;;4805590;29;20139;-90
2023/07/12 10:21:55;;;;;;;1.10;1.10;;;21.60;99.90;;;;;;4812994;29;20054;-92
2023/07/12 10:24:28;;;;;;;1.00;1.00;;;21.30;99.90;;;;;;4796806;29;20051;-91
2023/07/12 10:26:57;;;;;;;1.00;1.00;;;21.20;99.90;;;;;;4802585;29;20529;-92
2023/07/12 10:30:08;;;;;;;1.10;1.10;;;21.00;99.90;;;;;;4820591;29;20045;-95
2023/07/12 10:32:46;;;;;;;1.25;1.25;;;20.50;99.90;;;;;;4827956;29;20054;-83
2023/07/12 10:35:34;;;;;;;1.20;1.20;;;19.60;99.90;;;;;;4812159;29;20081;-84
2023/07/12 10:38:08;;;;;;;1.98;1.88;;;19.00;99.90;;;;;;4811513;29;20674;-86
2023/07/12 10:40:42;;;;;;;1.88;1.77;;;18.60;99.90;;;;;;4814193;29;20432;-86
2023/07/12 10:43:15;;;;;;;1.90;1.80;;;18.50;99.90;;;;;;4833520;29;20738;-84
2023/07/12 10:45:40;;;;;;;1.80;1.70;;;18.50;99.90;;;;;;4802378;29;20049;-80
2023/07/12 10:48:08;;;;;;;1.95;1.85;;;18.50;99.90;;;;;;4831685;29;20558;-85
2023/07/12 10:50:43;;;;;;;1.88;1.77;;;18.70;99.90;;;;;;4802319;29;20412;-81
2023/07/12 10:53:22;;;;;;;2.10;2.00;;;18.80;99.90;;;;;;4802246;29;20052;-83
2023/07/12 10:56:17;;;;;;;2.20;2.10;;;18.90;99.90;;;;;;4805316;29;20450;-86
2023/07/12 10:58:55;;;;;;;2.10;2.00;;;19.30;99.90;;;;;;4824363;29;20070;-86
2023/07/12 11:01:50;;;;;;;2.05;1.95;;;19.40;99.90;;;;;;4811965;29;20105;-86
2023/07/12 11:04:35;;;;;;;2.10;2.00;;;19.70;99.90;;;;;;4814149;29;20097;-86
2023/07/12 11:07:02;;;;;;;;;;;19.70;99.90;;;;;;4817803;29;20505;-82
2023/07/12 11:09:43;;;;;;;1.90;1.80;;;19.50;99.90;;;;;;4806974;29;19924;-89
2023/07/12 11:12:09;;;;;;;1.88;1.77;;;19.70;99.90;;;;;;4800995;29;20062;-86
2023/07/12 11:14:38;;;;;;;1.77;1.67;;;19.80;99.90;;;;;;4824082;29;20056;-86
2023/07/12 11:17:07;;;;;;;1.77;1.67;;;19.70;99.90;;;;;;4808132;29;20374;-85
2023/07/12 11:19:35;;;;;;;1.70;1.60;;;20.00;99.90;;;;;;4808319;29;20064;-83
2023/07/12 11:22:22;;;;;;;1.70;1.60;;;20.50;99.90;;;;;;4829265;29;20493;-83
2023/07/12 11:24:56;;;;;;;1.63;1.52;;;21.10;99.90;;;;;;4815116;29;20053;-82
2023/07/12 11:27:40;;;;;;;1.60;1.50;;;21.10;99.90;;;;;;4808532;29;20061;-87
2023/07/12 11:30:26;;;;;;;1.50;1.40;;;21.00;99.90;;;;;;4807335;29;20870;-87
2023/07/12 11:33:15;;;;;;;1.20;1.20;;;21.20;99.90;;;;;;4806742;29;20087;-84
2023/07/12 11:36:23;;;;;;;1.10;1.10;;;22.10;99.90;;;;;;4821310;29;20128;-89
2023/07/12 11:38:50;;;;;;;0.90;0.90;;;22.50;99.90;;;;;;4804069;29;20812;-85
2023/07/12 11:41:23;;;;;;;0.75;0.75;;;22.80;99.90;;;;;;4807647;29;20107;-88
2023/07/12 11:44:06;;;;;;;0.80;0.80;;;22.90;99.90;;;;;;4830288;29;20444;-84
2023/07/12 11:46:38;;;;;;;0.70;0.70;;;23.10;99.90;;;;;;4810194;29;20161;-88
2023/07/12 11:49:15;;;;;;;0.60;0.60;;;23.50;99.90;;;;;;4802393;29;20518;-88
2023/07/12 11:51:44;;;;;;;0.60;0.60;;;24.10;99.90;;;;;;4813710;29;20130;-89
2023/07/12 11:54:23;;;;;;;0.60;0.60;;;24.20;99.90;;;;;;4819866;29;20050;-89
2023/07/12 11:57:12;;;;;;;0.60;0.60;;;23.50;99.90;;;;;;4814005;29;20085;-95
2023/07/12 11:59:41;;;;;;;0.60;0.60;;;23.00;99.90;;;;;;4812364;29;20064;-85
2023/07/12 12:02:16;;;;;;;0.45;0.45;;;22.50;99.90;;;;;;4817890;29;20054;-90
2023/07/12 12:04:42;;;;;;;0.60;0.60;;;22.30;99.90;;;;;;4822467;29;20514;-87
2023/07/12 12:07:42;;;;;;;0.60;0.60;;;21.90;99.90;;;;;;4803021;29;20074;-96
2023/07/12 12:10:22;;;;;;;0.60;0.60;;;21.60;99.90;;;;;;4833274;29;20083;-88
2023/07/12 12:12:49;;;;;;;0.70;0.70;;;21.50;99.90;;;;;;4822883;29;20046;-85
2023/07/12 12:15:27;;;;;;;0.70;0.70;;;21.10;99.90;;;;;;4811051;29;20092;-84
2023/07/12 12:17:54;;;;;;;0.80;0.80;;;21.00;99.90;;;;;;4806099;29;20050;-90
2023/07/12 12:20:25;;;;;;;0.80;0.80;;;21.10;99.90;;;;;;4803562;29;20042;-87
2023/07/12 12:23:04;;;;;;;0.90;0.90;;;21.30;99.90;;;;;;4810227;29;20053;-85
2023/07/12 12:25:30;;;;;;;0.90;0.90;;;21.40;99.90;;;;;;4824972;29;20059;-87
2023/07/12 12:27:56;;;;;;;1.00;1.00;;;21.10;99.90;;;;;;4814466;29;20064;-89
2023/07/12 12:30:29;;;;;;;1.15;1.15;;;21.00;99.90;;;;;;4829363;29;20042;-92
2023/07/12 12:33:04;;;;;;;1.20;1.20;;;20.90;99.90;;;;;;4815657;29;20053;-85
2023/07/12 12:35:31;;;;;;;1.10;1.10;;;21.30;99.90;;;;;;4833417;29;20306;-86
2023/07/12 12:38:20;;;;;;;1.10;1.10;;;21.30;99.90;;;;;;4809818;29;20665;-84
2023/07/12 12:40:52;;;;;;;1.20;1.20;;;21.20;99.90;;;;;;4815581;29;20700;-83
2023/07/12 12:43:19;;;;;;;1.30;1.30;;;21.10;99.90;;;;;;4816318;29;20050;-94
2023/07/12 12:46:03;;;;;;;1.10;1.10;;;21.10;99.90;;;;;;4813855;29;20049;-92
2023/07/12 12:48:37;;;;;;;1.17;1.17;;;21.20;99.90;;;;;;4811042;29;20046;-89
2023/07/12 12:51:03;;;;;;;1.10;1.10;;;21.70;99.90;;;;;;4811274;29;20066;-89
2023/07/12 12:53:39;;;;;;;0.90;0.90;;;22.00;99.90;;;;;;4821356;29;20415;-95
2023/07/12 12:56:11;;;;;;;1.10;1.10;;;22.20;99.90;;;;;;4816904;29;20046;-93
2023/07/12 12:58:37;;;;;;;1.00;1.00;;;21.90;99.90;;;;;;4800996;29;20113;-87
2023/07/12 13:01:03;;;;;;;0.90;0.90;;;21.70;99.90;;;;;;4819056;29;20820;-92
2023/07/12 13:03:28;;;;;;;0.90;0.90;;;21.40;99.90;;;;;;4798185;29;20054;-87
2023/07/12 13:05:57;;;;;;;0.85;0.85;;;21.40;99.90;;;;;;4826820;29;20933;-91
2023/07/12 13:08:23;;;;;;;0.90;0.90;;;21.30;99.90;;;;;;4812327;29;20049;-88
2023/07/12 13:10:49;;;;;;;1.00;1.00;;;21.10;99.90;;;;;;4835310;29;20061;-85
2023/07/12 13:13:17;;;;;;;1.05;1.05;;;20.90;99.90;;;;;;4809644;29;20137;-87
2023/07/12 13:15:50;;;;;;;1.10;1.10;;;20.90;99.90;;;;;;4816554;29;20073;-89
2023/07/12 13:18:19;;;;;;;1.10;1.10;;;20.80;99.90;;;;;;4819239;29;20713;-85
2023/07/12 13:20:46;;;;;;;1.20;1.20;;;20.80;99.90;;;;;;4816524;29;20054;-85
2023/07/12 13:23:12;;;;;;;1.10;1.10;;;20.50;99.90;;;;;;4818862;29;20049;-81